Latest Weather Observations for Cape Grim

IDT60801

Issued at 7:05 am EST Tuesday 2 September 2014 (issued every 30 minutes, with the page automatically refreshed every 10 minutes)

About weather observations | Map of weather stations | Latest weather observations for TAS | Other Formats
Station Details ID: 091331 Name: CAPE GRIM Lat: -40.68 Lon: 144.69 Height: 86.0 m
Data from the previous 72 hours. | See also: Recent months at Cape Grim
Date/Time
EST
Temp
°C
App
Temp
°C
Dew
Point
Rel
Hum
%
Delta-T
°C
Wind Press
QNH
hPa
Press
MSL
hPa
Rain
since 9 am
mm
Dir
 
Spd
km/h
Gust
km/h
Spd
kts
Gust
kts
02/07:00am 7.9 1.2 1.7 65 2.5 S 26 35 14 19 1016.8 1016.9 1.8
02/06:30am 7.8 0.4 1.6 65 2.5 S 30 39 16 21 1016.2 1016.3 1.8
02/06:00am 7.8 0.4 1.6 65 2.5 SSE 30 37 16 20 1015.9 1016.0 1.8
02/05:30am 7.7 0.2 1.5 65 2.5 S 30 39 16 21 1015.3 1015.4 1.8
02/05:00am 8.1 0.4 2.4 67 2.4 S 32 44 17 24 1014.8 1014.9 1.8
02/04:30am 8.4 0.6 2.8 68 2.4 S 33 46 18 25 1014.2 1014.3 1.8
02/04:00am 8.5 1.4 3.6 71 2.1 S 30 43 16 23 1013.8 1013.9 1.8
02/03:30am 8.6 2.0 4.0 73 2.0 S 28 41 15 22 1013.6 1013.7 1.8
02/03:00am 8.7 2.2 4.7 76 1.8 S 28 37 15 20 1013.3 1013.4 1.8
02/02:30am 8.8 2.3 4.8 76 1.8 S 28 39 15 21 1013.1 1013.2 1.8
02/02:00am 9.3 2.5 5.3 76 1.8 S 30 39 16 21 1012.8 1012.9 1.8
02/01:30am 9.3 3.1 6.2 81 1.4 S 28 39 15 21 1012.5 1012.6 1.8
02/01:00am 9.4 3.4 5.2 75 1.9 S 26 35 14 19 1012.3 1012.4 1.8
02/12:30am 9.6 4.2 6.5 81 1.4 S 24 33 13 18 1012.2 1012.3 1.8
02/12:00am 9.3 2.8 6.4 82 1.3 S 30 37 16 20 1012.1 1012.2 1.8
 
Date/Time
EST
Temp
°C
App
Temp
°C
Dew
Point
Rel
Hum
%
Delta-T
°C
Wind Press
QNH
hPa
Press
MSL
hPa
Rain
since 9 am
mm
Dir
 
Spd
km/h
Gust
km/h
Spd
kts
Gust
kts
01/11:30pm 9.7 2.2 6.2 79 1.6 SW 35 48 19 26 1011.8 1011.9 1.8
01/11:00pm 10.5 3.2 7.2 80 1.6 SW 35 43 19 23 1011.6 1011.7 1.8
01/10:30pm 10.8 3.4 6.9 77 1.9 SW 35 46 19 25 1011.2 1011.3 1.8
01/10:00pm 10.3 5.2 7.5 83 1.3 SSW 24 35 13 19 1011.0 1011.1 1.8
01/09:30pm 10.0 4.8 7.1 82 1.4 SSW 24 33 13 18 1010.7 1010.8 1.8
01/09:00pm 9.8 4.7 6.2 78 1.7 S 22 30 12 16 1010.5 1010.6 1.8
01/08:30pm 9.9 4.4 5.7 75 1.9 S 24 33 13 18 1010.5 1010.6 1.8
01/08:00pm 10.4 4.3 6.4 76 1.9 S 28 37 15 20 1010.2 1010.3 1.8
01/07:30pm 10.6 4.2 6.9 78 1.8 SSW 30 39 16 21 1009.6 1009.6 1.8
01/07:00pm 10.6 3.7 6.6 76 1.9 SSW 32 46 17 25 1008.9 1008.9 1.8
01/06:30pm 10.6 4.1 6.4 75 2.0 SSW 30 41 16 22 1008.6 1008.6 1.8
01/06:00pm 10.4 3.5 6.4 76 1.9 SSW 32 44 17 24 1008.1 1008.1 1.8
01/05:30pm 10.6 3.4 7.5 81 1.5 SSW 35 48 19 26 1007.5 1007.5 1.8
01/05:00pm 11.2 3.2 7.5 78 1.8 SW 39 50 21 27 1007.1 1007.1 1.8
01/04:30pm 11.3 3.7 7.6 78 1.8 SW 37 48 20 26 1006.8 1006.8 1.8
01/04:00pm 11.5 5.0 8.0 79 1.7 SSW 32 44 17 24 1006.5 1006.5 1.8
01/03:30pm 11.7 2.9 7.2 74 2.2 SW 43 54 23 29 1006.1 1006.1 1.8
01/03:00pm 11.8 3.8 7.5 75 2.1 SW 39 50 21 27 1006.1 1006.1 1.8
01/02:30pm 11.9 4.1 8.2 78 1.8 SW 39 50 21 27 1005.6 1005.7 1.8
01/02:00pm 11.9 5.2 8.0 77 1.9 SW 33 46 18 25 1005.3 1005.4 1.8
01/01:30pm 11.7 4.7 8.6 81 1.5 SW 35 50 19 27 1005.0 1005.1 1.8
01/01:00pm 11.7 3.9 8.2 79 1.7 SW 39 50 21 27 1005.1 1005.2 1.8
01/12:30pm 11.5 3.7 8.2 80 1.6 SW 39 50 21 27 1005.2 1005.3 1.8
01/12:05pm 11.3 4.3 8.5 83 1.4 SSW 35 50 19 27 1005.1 1005.2 1.8
01/12:00pm 11.3 4.4 9.0 86 1.2 SSW 35 50 19 27 1005.2 1005.3 1.8
01/11:44am 10.8 4.0 9.2 90 0.8 SSW 35 54 19 29 1004.8 1004.9 1.8
01/11:30am 10.7 4.3 9.5 92 0.6 SSW 33 46 18 25 1004.9 1005.0 1.8
01/11:08am 11.3 6.4 9.9 91 0.7 SSW 26 37 14 20 1004.8 1004.9 0.8
01/11:04am 11.7 7.7 10.3 91 0.7 SSW 22 35 12 19 1004.7 1004.8 0.8
01/11:00am 11.8 8.2 10.5 92 0.7 SSW 20 35 11 19 1004.7 1004.8 0.8
01/10:30am 12.0 7.7 10.6 91 0.7 SW 24 30 13 16 1004.5 1004.6 0.8
01/10:26am 12.0 7.7 10.6 91 0.7 SW 24 30 13 16 1004.4 1004.5 0.8
01/10:00am 12.1 8.2 10.7 91 0.7 W 22 30 12 16 1004.6 1004.7 0.6
01/09:30am 11.8 6.5 10.0 89 0.9 WNW 28 35 15 19 1004.4 1004.5 0.0
01/09:00am 11.4 6.8 9.5 88 1.0 WNW 24 32 13 17 1004.3 1004.4 1.0
01/08:40am 11.9 6.7 10.1 89 0.9 W 28 37 15 20 1004.3 1004.4 1.0
01/08:30am 12.8 5.7 11.0 89 0.9 NW 39 48 21 26 1004.2 1004.3 1.0
01/08:00am 13.0 6.9 10.5 85 1.3 NW 33 56 18 30 1004.1 1004.2 1.0
01/07:56am 13.0 6.5 10.4 84 1.4 NW 35 56 19 30 1004.1 1004.2 1.0
01/07:30am 13.1 5.4 10.3 83 1.5 NNW 41 48 22 26 1003.9 1004.0 1.0
01/07:07am 13.4 6.4 9.8 79 1.9 NNW 37 57 20 31 1003.9 1004.0 1.0
01/07:00am 13.2 7.6 10.0 81 1.7 N 30 43 16 23 1004.0 1004.1 1.0
01/06:30am 12.9 8.6 10.8 87 1.1 N 24 32 13 17 1003.9 1004.0 1.0
01/06:00am 12.6 10.1 11.2 91 0.7 NNW 15 17 8 9 1004.7 1004.8 1.0
01/05:30am 12.5 11.5 10.9 90 0.8 NNE 7 9 4 5 1004.6 1004.7 0.4
01/05:00am 12.8 11.4 11.0 89 1.0 NNW 9 15 5 8 1005.0 1005.1 0.2
01/04:30am 12.9 12.0 10.8 87 1.1 NW 6 7 3 4 1005.0 1005.1 0.0
01/04:00am 13.3 12.2 10.8 85 1.3 NW 7 11 4 6 1005.3 1005.4 0.0
01/03:30am 13.3 10.8 11.0 86 1.2 WNW 15 22 8 12 1005.9 1005.9 0.0
01/03:00am 13.4 11.2 10.9 85 1.3 N 13 15 7 8 1005.8 1005.8 0.0
01/02:30am 13.5 10.3 11.2 86 1.2 NNW 19 26 10 14 1006.8 1006.8 0.0
01/02:00am 13.7 9.5 11.2 85 1.3 NNW 24 33 13 18 1007.0 1007.0 0.0
01/01:30am 13.9 8.9 11.1 83 1.5 NNW 28 43 15 23 1007.0 1007.0 0.0
01/01:00am 14.0 8.0 10.8 81 1.7 NNW 33 43 18 23 1007.4 1007.4 0.0
01/12:30am 14.4 7.2 10.4 77 2.1 N 39 46 21 25 1007.0 1007.0 0.0
01/12:00am 15.1 6.8 10.1 72 2.6 N 44 57 24 31 1007.0 1007.0 0.0
 
Date/Time
EST
Temp
°C
App
Temp
°C
Dew
Point
Rel
Hum
%
Delta-T
°C
Wind Press
QNH
hPa
Press
MSL
hPa
Rain
since 9 am
mm
Dir
 
Spd
km/h
Gust
km/h
Spd
kts
Gust
kts
31/11:30pm 15.1 7.0 9.9 71 2.7 N 43 56 23 30 1007.4 1007.4 0.0
31/11:18pm 15.2 7.1 10.0 71 2.7 N 43 61 23 33 1007.5 1007.5 0.0
31/11:00pm 14.8 7.2 10.4 75 2.3 N 41 50 22 27 1007.8 1007.8 0.0
31/10:30pm 14.9 6.4 10.5 75 2.3 N 46 59 25 32 1008.1 1008.2 0.0
31/10:00pm 14.7 6.7 10.5 76 2.2 N 43 50 23 27 1008.1 1008.2 0.0
31/09:30pm 14.7 8.2 10.5 76 2.2 N 35 44 19 24 1009.0 1009.1 0.0
31/09:00pm 14.7 8.6 10.5 76 2.2 NNW 33 44 18 24 1009.7 1009.8 0.0
31/08:30pm 15.3 8.7 10.1 71 2.7 N 35 46 19 25 1009.6 1009.7 0.0
31/08:23pm 15.2 10.0 10.2 72 2.6 NNE 28 46 15 25 1009.6 1009.7 0.0
31/08:00pm 15.0 10.3 10.8 76 2.2 NNE 26 37 14 20 1009.9 1010.0 0.0
31/07:30pm 12.7 8.1 10.9 89 0.9 E 26 28 14 15 1010.1 1010.2 0.0
31/07:00pm 12.8 7.4 10.9 88 1.0 E 30 37 16 20 1010.2 1010.3 0.0
31/06:30pm 12.6 8.0 11.0 90 0.8 ENE 26 32 14 17 1010.5 1010.6 0.0
31/06:00pm 12.7 7.6 10.6 87 1.1 ENE 28 35 15 19 1010.3 1010.4 0.0
31/05:49pm 13.1 8.1 10.8 86 1.2 ENE 28 46 15 25 1010.5 1010.6 0.0
31/05:30pm 12.8 8.2 10.9 88 1.0 ENE 26 33 14 18 1010.6 1010.7 0.0
31/05:00pm 13.0 8.0 11.1 88 1.0 ENE 28 35 15 19 1010.8 1010.9 0.0
31/04:30pm 13.3 8.3 11.0 86 1.2 ENE 28 33 15 18 1010.7 1010.8 0.0
31/04:00pm 13.8 7.9 11.3 85 1.3 ENE 33 39 18 21 1010.8 1010.9 0.0
31/03:30pm 14.0 8.3 11.3 84 1.4 ENE 32 39 17 21 1011.2 1011.3 0.0
31/03:00pm 13.8 8.6 11.5 86 1.2 ENE 30 33 16 18 1011.8 1011.9 0.0
31/02:30pm 14.4 8.9 11.7 84 1.5 NE 32 37 17 20 1012.1 1012.2 0.0
31/02:00pm 14.5 9.0 12.0 85 1.4 NE 32 39 17 21 1012.6 1012.7 0.0
31/01:30pm 14.4 8.8 11.4 82 1.6 ENE 32 37 17 20 1013.0 1013.1 0.0
31/01:00pm 14.7 9.8 12.4 86 1.3 NE 30 37 16 20 1013.5 1013.6 0.0
31/12:30pm 14.4 9.5 12.4 88 1.1 NE 30 35 16 19 1014.0 1014.1 0.0
31/12:00pm 14.0 8.9 12.0 88 1.1 ENE 30 35 16 19 1014.5 1014.6 0.0
31/11:30am 13.6 9.2 11.8 89 1.0 NE 26 30 14 16 1015.2 1015.3 0.0
31/11:00am 14.2 8.6 12.2 88 1.1 NE 33 39 18 21 1015.3 1015.4 0.0
31/10:30am 14.1 7.9 12.5 90 0.9 ENE 37 43 20 23 1015.3 1015.4 0.0
31/10:00am 13.8 7.9 12.4 91 0.8 ENE 35 44 19 24 1015.8 1015.9 0.0
31/09:30am 13.5 8.0 12.4 93 0.6 ENE 33 39 18 21 1016.2 1016.3 0.0
31/09:00am 13.2 7.3 12.3 94 0.5 ENE 35 43 19 23 1016.2 1016.3 0.2
31/08:30am 13.0 7.6 12.2 95 0.4 ENE 32 39 17 21 1016.5 1016.6 0.2
31/08:00am 12.4 6.8 11.6 95 0.4 ENE 32 37 17 20 1016.8 1016.9 0.2
31/07:30am 11.8 6.5 11.2 96 0.3 ENE 30 35 16 19 1016.8 1016.9 0.2
31/07:00am 11.6 5.9 11.0 96 0.3 ENE 32 35 17 19 1016.7 1016.8 0.2
31/06:58am 11.5 5.7 10.9 96 0.3 ENE 32 37 17 20 1016.7 1016.8 0.2
31/06:30am 11.5 6.0 10.7 95 0.4 ENE 30 35 16 19 1016.8 1016.9 0.2
31/06:00am 11.4 6.4 10.8 96 0.3 ENE 28 32 15 17 1017.1 1017.2 0.2
31/05:30am 11.3 6.2 10.5 95 0.4 ENE 28 32 15 17 1017.0 1017.1 0.2
31/05:00am 11.3 6.2 10.5 95 0.4 ENE 28 35 15 19 1017.0 1017.1 0.0
31/04:31am 11.3 6.2 10.5 95 0.4 ENE 28 33 15 18 1017.1 1017.2 0.0
31/04:30am 11.2 6.0 10.4 95 0.4 ENE 28 33 15 18 1017.1 1017.2 0.0
31/04:00am 11.4 6.3 10.6 95 0.4 ENE 28 35 15 19 1017.4 1017.5 0.0
31/03:30am 11.5 6.4 10.6 94 0.5 ENE 28 33 15 18 1017.8 1017.9 0.0
31/03:00am 11.5 6.0 10.6 94 0.5 ENE 30 33 16 18 1017.9 1018.0 0.0
31/02:30am 11.5 6.0 10.6 94 0.5 ENE 30 35 16 19 1018.4 1018.5 0.0
31/02:00am 11.7 6.6 10.6 93 0.6 ENE 28 35 15 19 1018.8 1018.9 0.0
31/01:30am 11.6 5.5 10.5 93 0.6 ENE 33 41 18 22 1018.7 1018.8 0.0
31/01:00am 11.6 6.5 10.5 93 0.6 ENE 28 35 15 19 1019.6 1019.7 0.0
31/12:30am 11.5 5.9 10.2 92 0.7 ENE 30 35 16 19 1019.9 1020.0 0.0
31/12:00am 11.6 6.0 10.3 92 0.7 ENE 30 35 16 19 1020.2 1020.3 0.0
 
Date/Time
EST
Temp
°C
App
Temp
°C
Dew
Point
Rel
Hum
%
Delta-T
°C
Wind Press
QNH
hPa
Press
MSL
hPa
Rain
since 9 am
mm
Dir
 
Spd
km/h
Gust
km/h
Spd
kts
Gust
kts
30/11:30pm 11.7 5.6 10.4 92 0.7 NE 33 41 18 22 1020.3 1020.4 0.0
30/11:00pm 11.6 5.6 10.2 91 0.7 ENE 32 39 17 21 1020.6 1020.7 0.0
30/10:30pm 11.6 5.1 10.3 92 0.7 ENE 35 43 19 23 1020.3 1020.4 0.0
30/10:00pm 11.6 4.7 10.2 91 0.7 ENE 37 46 20 25 1020.9 1021.0 0.0
30/09:30pm 11.5 4.6 10.2 92 0.7 ENE 37 44 20 24 1021.1 1021.2 0.0
30/09:00pm 11.5 4.6 10.2 92 0.7 ENE 37 46 20 25 1021.5 1021.6 0.0
30/08:30pm 11.5 5.0 10.2 92 0.7 ENE 35 43 19 23 1021.7 1021.8 0.0
30/08:00pm 11.5 4.9 10.1 91 0.7 ENE 35 43 19 23 1021.8 1021.9 0.0
30/07:30pm 11.6 4.3 10.2 91 0.7 ENE 39 46 21 25 1021.8 1021.9 0.0
30/07:00pm 11.5 4.1 9.9 90 0.8 ENE 39 48 21 26 1021.5 1021.6 0.0
30/06:30pm 11.5 4.5 9.9 90 0.8 ENE 37 44 20 24 1021.7 1021.8 0.0
30/06:00pm 11.6 3.8 9.9 89 0.9 ENE 41 48 22 26 1021.7 1021.8 0.0
30/05:30pm 11.8 3.6 9.7 87 1.1 ENE 43 52 23 28 1021.8 1021.9 0.0
30/05:00pm 12.1 3.9 9.7 85 1.2 ENE 43 52 23 28 1021.8 1021.9 0.0
30/04:30pm 12.4 3.9 9.4 82 1.5 ENE 44 56 24 30 1022.2 1022.3 0.0
30/04:00pm 13.0 4.7 10.0 82 1.5 ENE 44 52 24 28 1022.1 1022.2 0.0
30/03:30pm 13.0 4.2 9.4 79 1.8 ENE 46 57 25 31 1022.3 1022.4 0.0
30/03:00pm 13.5 5.3 9.7 78 1.9 ENE 43 54 23 29 1022.6 1022.7 0.0
30/02:30pm 13.6 5.7 9.3 75 2.2 ENE 41 52 22 28 1023.1 1023.2 0.0
30/02:00pm 14.0 5.6 9.8 76 2.2 ENE 44 54 24 29 1023.3 1023.4 0.0
30/01:30pm 14.1 6.1 10.5 79 1.9 ENE 43 54 23 29 1023.7 1023.8 0.0
30/01:00pm 13.7 5.4 10.1 79 1.9 NE 44 54 24 29 1024.0 1024.1 0.0
30/12:30pm 13.7 5.2 10.5 81 1.7 NE 46 52 25 28 1024.6 1024.7 0.0
30/12:00pm 14.3 6.3 11.1 81 1.7 NE 44 54 24 29 1025.1 1025.2 0.0
30/11:30am 13.9 6.5 11.1 83 1.5 NE 41 50 22 27 1025.5 1025.6 0.0
30/11:00am 13.7 6.3 11.2 85 1.3 ENE 41 50 22 27 1025.7 1025.8 0.0
30/10:30am 13.5 6.5 11.2 86 1.2 ENE 39 48 21 26 1026.0 1026.1 0.0
30/10:07am 13.5 6.6 11.6 88 1.0 ENE 39 50 21 27 1026.2 1026.3 0.0
30/10:00am 13.5 6.6 11.7 89 1.0 ENE 39 50 21 27 1026.3 1026.4 0.0
30/09:30am 13.3 7.3 12.2 93 0.6 ENE 35 46 19 25 1026.8 1026.9 0.0
30/09:00am 12.5 6.7 11.6 94 0.5 ENE 33 43 18 23 1027.0 1027.1 0.2
30/08:30am 12.2 6.5 11.3 94 0.5 ENE 32 41 17 22 1027.3 1027.5 0.2
30/08:00am 11.6 5.8 10.8 95 0.4 ENE 32 39 17 21 1027.3 1027.5 0.2
30/07:30am 11.3 5.8 10.5 95 0.4 ENE 30 37 16 20 1027.3 1027.5 0.2

Other Formats:

Comma delimited format used in spreadsheet applications
http://www.bom.gov.au/fwo/IDT60801/IDT60801.95954.axf

JavaScript Object Notation format (JSON) in row-major order
http://www.bom.gov.au/fwo/IDT60801/IDT60801.95954.json